Time;durP1;ratioP1;P1;durP2;ratioP2;P2;SDS_P1;SDS_P2;PMS_P1;PMS_P2;Temp;Humidity;BMP_temperature;BMP_pressure;BME280_temperature;BME280_humidity;BME280_pressure;Samples;Min_cycle;Max_cycle;Signal;HPM_P1;HPM_P2
2022/10/06 00:01:03;;;;;;;3.75;1.23;;;;;;;16.28;64.91;102140.88;5085479;28;20054;-63
2022/10/06 00:03:33;;;;;;;3.53;1.40;;;;;;;16.26;64.90;102146.53;5084918;28;20045;-63
2022/10/06 00:06:02;;;;;;;7.75;2.08;;;;;;;16.18;64.80;102146.84;5084157;28;20051;-62
2022/10/06 00:08:31;;;;;;;6.38;1.67;;;;;;;16.23;64.87;102155.13;5083698;28;20045;-63
2022/10/06 00:10:58;;;;;;;6.72;2.38;;;;;;;16.23;64.82;102165.16;5083721;28;20549;-63
2022/10/06 00:13:27;;;;;;;3.35;1.88;;;;;;;16.21;64.77;102159.97;5081119;28;20052;-62
2022/10/06 00:15:55;;;;;;;5.38;0.90;;;;;;;16.20;64.95;102171.88;5083065;28;20064;-63
2022/10/06 00:18:23;;;;;;;6.63;1.42;;;;;;;16.20;64.79;102179.16;5080292;28;20053;-63
2022/10/06 00:20:57;;;;;;;4.80;1.30;;;;;;;16.19;64.84;102188.38;5083428;28;20102;-62
2022/10/06 00:23:26;;;;;;;6.35;1.13;;;;;;;16.17;64.76;102201.31;5073287;28;20509;-63
2022/10/06 00:25:54;;;;;;;4.63;1.35;;;;;;;16.18;64.80;102192.13;5075844;28;20112;-63
2022/10/06 00:28:22;;;;;;;4.60;1.48;;;;;;;16.16;64.77;102194.25;5080248;28;20410;-63
2022/10/06 00:30:52;;;;;;;5.57;1.42;;;;;;;16.15;64.61;102200.72;5084365;28;20485;-63
2022/10/06 00:33:20;;;;;;;5.43;1.77;;;;;;;16.12;64.39;102199.28;5083613;28;20072;-62
2022/10/06 00:35:55;;;;;;;5.45;1.77;;;;;;;16.11;64.59;102199.50;5076326;28;20045;-63
2022/10/06 00:38:24;;;;;;;6.22;1.58;;;;;;;16.03;64.59;102195.22;5082127;28;20048;-62
2022/10/06 00:40:53;;;;;;;6.20;1.40;;;;;;;16.09;64.47;102212.47;5084958;28;20090;-62
2022/10/06 00:43:48;;;;;;;3.95;1.50;;;;;;;16.08;64.38;102216.25;5083951;28;20063;-63
2022/10/06 00:46:24;;;;;;;5.05;1.40;;;;;;;16.06;64.42;102213.75;5083612;28;20052;-62
2022/10/06 00:48:56;;;;;;;3.47;1.33;;;;;;;16.06;64.26;102221.06;5084044;28;20052;-63
2022/10/06 00:51:24;;;;;;;6.65;1.27;;;;;;;16.05;64.57;102225.66;5084510;28;20048;-63
2022/10/06 00:53:53;;;;;;;5.45;1.33;;;;;;;16.04;64.57;102229.41;5078055;28;20498;-64
2022/10/06 00:56:21;;;;;;;7.13;1.95;;;;;;;16.04;64.57;102228.59;5082527;28;20036;-63
2022/10/06 00:58:49;;;;;;;3.95;1.10;;;;;;;16.03;64.29;102230.47;5081689;28;20082;-63
2022/10/06 01:01:17;;;;;;;3.97;1.30;;;;;;;16.03;64.35;102221.50;5077318;28;20052;-62
2022/10/06 01:03:49;;;;;;;4.47;1.95;;;;;;;16.02;64.41;102227.97;5076991;28;20053;-62
2022/10/06 01:06:16;;;;;;;4.82;1.33;;;;;;;16.00;64.25;102233.63;5084112;28;20062;-62
2022/10/06 01:08:45;;;;;;;6.15;1.38;;;;;;;16.00;63.95;102240.94;5083254;28;20045;-63
2022/10/06 01:11:15;;;;;;;3.45;1.55;;;;;;;15.99;64.10;102240.09;5079619;28;20116;-63
2022/10/06 01:13:44;;;;;;;2.95;1.30;;;;;;;15.98;63.97;102254.72;5081420;28;20048;-62
2022/10/06 01:16:17;;;;;;;5.55;1.60;;;;;;;15.96;64.05;102254.13;5079413;28;20243;-62
2022/10/06 01:18:47;;;;;;;7.93;1.90;;;;;;;15.92;63.99;102255.59;5080962;28;20049;-62
2022/10/06 01:21:23;;;;;;;3.17;1.52;;;;;;;15.95;63.76;102274.16;5078659;28;20044;-63
2022/10/06 01:23:52;;;;;;;3.42;1.17;;;;;;;15.95;63.97;102274.16;5083973;28;20072;-63
2022/10/06 01:26:24;;;;;;;6.45;1.40;;;;;;;15.92;63.79;102275.41;5079089;28;20047;-62
2022/10/06 01:28:52;;;;;;;7.45;1.70;;;;;;;15.93;63.69;102278.97;5086410;28;20044;-63
2022/10/06 01:31:20;;;;;;;5.93;1.50;;;;;;;15.91;63.72;102278.34;5086591;28;20051;-62
2022/10/06 01:33:51;;;;;;;5.07;1.48;;;;;;;15.89;63.36;102289.41;5079147;28;20068;-62
2022/10/06 01:36:19;;;;;;;4.85;1.20;;;;;;;15.89;63.50;102288.59;5086654;28;20124;-62
2022/10/06 01:38:47;;;;;;;6.55;2.00;;;;;;;15.87;63.52;102291.53;5081653;28;20049;-64
2022/10/06 01:41:16;;;;;;;3.47;1.17;;;;;;;15.87;63.45;102287.97;5085917;28;20429;-62
2022/10/06 01:43:44;;;;;;;7.55;1.52;;;;;;;15.85;63.50;102293.63;5087178;28;20048;-62
2022/10/06 01:46:12;;;;;;;5.82;1.45;;;;;;;15.84;63.39;102296.56;5074572;28;20050;-63
2022/10/06 01:48:39;;;;;;;13.00;2.20;;;;;;;15.82;63.13;102296.78;5081959;28;20052;-62
2022/10/06 01:51:08;;;;;;;6.18;1.70;;;;;;;15.82;63.12;102312.22;5079690;28;20066;-63
2022/10/06 01:53:36;;;;;;;4.65;1.35;;;;;;;15.79;63.41;102313.50;5086461;28;20045;-63
2022/10/06 01:56:03;;;;;;;6.47;1.60;;;;;;;15.79;63.24;102315.38;5078945;28;20044;-63
2022/10/06 01:58:33;;;;;;;11.50;1.70;;;;;;;15.78;63.36;102314.53;5085203;28;20044;-63
2022/10/06 02:01:04;;;;;;;8.90;2.33;;;;;;;15.76;63.22;102318.53;5087124;28;20054;-62
2022/10/06 02:03:34;;;;;;;5.10;1.70;;;;;;;15.75;63.40;102314.16;5081047;28;20047;-62
2022/10/06 02:06:02;;;;;;;8.68;1.90;;;;;;;15.73;63.43;102317.09;5085644;28;20040;-62
2022/10/06 02:08:30;;;;;;;7.22;1.70;;;;;;;15.72;63.60;102320.84;5081960;28;20098;-62
2022/10/06 02:11:00;;;;;;;8.70;1.35;;;;;;;15.71;63.50;102330.03;5083134;28;20048;-62
2022/10/06 02:13:28;;;;;;;9.25;2.10;;;;;;;15.70;63.43;102335.66;5085605;28;20056;-63
2022/10/06 02:15:58;;;;;;;7.90;1.88;;;;;;;15.68;63.62;102325.03;5078141;28;20048;-63
2022/10/06 02:18:26;;;;;;;6.35;1.75;;;;;;;15.68;63.56;102338.59;5086271;28;20070;-62
2022/10/06 02:20:55;;;;;;;6.50;1.75;;;;;;;15.67;63.57;102336.94;5086235;28;20052;-62
2022/10/06 02:23:22;;;;;;;5.15;1.13;;;;;;;15.66;63.49;102343.41;5076011;28;20056;-63
2022/10/06 02:25:57;;;;;;;5.47;1.92;;;;;;;15.63;63.34;102344.66;5083115;28;20122;-62
2022/10/06 02:28:25;;;;;;;8.75;1.63;;;;;;;15.62;63.26;102347.59;5085483;28;20044;-62
2022/10/06 02:30:54;;;;;;;8.18;1.95;;;;;;;15.61;63.47;102351.34;5083643;28;20048;-62
2022/10/06 02:33:23;;;;;;;6.40;1.75;;;;;;;15.61;63.42;102354.06;5083046;28;20059;-63
2022/10/06 02:35:54;;;;;;;8.82;2.25;;;;;;;15.56;63.34;102343.06;5085040;28;20118;-62
2022/10/06 02:38:23;;;;;;;6.55;1.83;;;;;;;15.57;63.24;102356.41;5078677;28;20044;-62
2022/10/06 02:40:52;;;;;;;6.05;1.50;;;;;;;15.56;63.29;102362.84;5086911;28;20078;-63
2022/10/06 02:43:21;;;;;;;5.47;1.52;;;;;;;15.55;63.42;102366.63;5083587;28;20070;-63
2022/10/06 02:45:55;;;;;;;8.48;1.95;;;;;;;15.53;63.44;102376.84;5080835;28;20049;-62
2022/10/06 02:48:24;;;;;;;8.05;1.52;;;;;;;15.52;63.51;102380.59;5083025;28;20062;-63
2022/10/06 02:50:55;;;;;;;10.30;2.35;;;;;;;15.52;63.51;102379.75;5079748;28;20059;-62
2022/10/06 02:53:24;;;;;;;5.63;1.40;;;;;;;15.51;63.41;102378.09;5085265;28;20045;-62
2022/10/06 02:55:51;;;;;;;6.10;1.98;;;;;;;15.49;63.40;102388.31;5086232;28;20048;-62
2022/10/06 02:58:19;;;;;;;6.07;1.38;;;;;;;15.47;63.13;102388.53;5075031;28;20063;-62
2022/10/06 03:00:47;;;;;;;5.38;1.33;;;;;;;15.47;63.38;102388.53;5083880;28;20060;-62
2022/10/06 03:03:15;;;;;;;6.70;1.70;;;;;;;15.48;63.18;102383.97;5077005;28;20049;-62
2022/10/06 03:05:44;;;;;;;8.45;1.70;;;;;;;15.45;63.11;102400.66;5084256;28;20075;-63
2022/10/06 03:08:12;;;;;;;4.97;1.70;;;;;;;15.43;63.16;102403.56;5078875;28;20044;-62
2022/10/06 03:10:39;;;;;;;9.35;2.53;;;;;;;15.44;63.12;102409.81;5084832;28;20048;-63
2022/10/06 03:13:07;;;;;;;7.30;1.65;;;;;;;15.43;63.00;102413.56;5086102;28;20413;-63
2022/10/06 03:15:35;;;;;;;11.77;1.85;;;;;;;15.41;63.22;102410.25;5080108;28;20053;-63
2022/10/06 03:18:03;;;;;;;6.03;1.95;;;;;;;15.40;63.09;102422.13;5085702;28;20109;-63
2022/10/06 03:20:31;;;;;;;7.13;1.88;;;;;;;15.39;62.90;102426.72;5085117;28;20123;-63
2022/10/06 03:23:00;;;;;;;5.60;1.77;;;;;;;15.37;62.82;102428.81;5081543;28;20108;-62
2022/10/06 03:25:28;;;;;;;5.10;1.92;;;;;;;15.36;63.12;102446.13;5080319;28;20062;-62
2022/10/06 03:27:56;;;;;;;7.00;1.73;;;;;;;15.35;63.20;102440.91;5083149;28;20045;-63
2022/10/06 03:30:23;;;;;;;3.25;1.73;;;;;;;15.33;63.06;102438.41;5081864;28;20079;-62
2022/10/06 03:32:52;;;;;;;5.40;1.63;;;;;;;15.33;62.75;102443.84;5084550;28;20062;-62
2022/10/06 03:35:20;;;;;;;4.85;1.52;;;;;;;15.30;63.02;102445.09;5083339;28;20048;-62
2022/10/06 03:37:48;;;;;;;7.45;1.67;;;;;;;15.29;62.91;102451.56;5083503;28;20516;-62
2022/10/06 03:40:18;;;;;;;5.93;2.15;;;;;;;15.29;62.93;102451.56;5086161;28;20056;-62
2022/10/06 03:42:46;;;;;;;7.75;2.42;;;;;;;15.28;63.01;102459.91;5081501;28;20052;-62
2022/10/06 03:45:14;;;;;;;6.15;2.03;;;;;;;15.28;62.79;102459.91;5085331;28;20048;-62
2022/10/06 03:47:42;;;;;;;7.43;2.08;;;;;;;15.27;62.92;102461.78;5082479;28;20057;-62
2022/10/06 03:50:10;;;;;;;11.73;2.90;;;;;;;15.26;62.55;102464.69;5080296;28;20049;-63
2022/10/06 03:52:38;;;;;;;4.95;1.52;;;;;;;15.26;62.51;102470.94;5076299;28;20055;-62
2022/10/06 03:55:06;;;;;;;8.48;2.00;;;;;;;15.24;62.77;102473.03;5084914;28;20040;-63
2022/10/06 03:57:35;;;;;;;8.32;2.20;;;;;;;15.23;62.57;102479.50;5084450;28;20040;-62
2022/10/06 04:00:03;;;;;;;9.35;2.00;;;;;;;15.22;62.30;102483.25;5073426;28;20131;-62
2022/10/06 04:02:30;;;;;;;10.18;1.92;;;;;;;15.21;62.50;102491.59;5084853;28;20056;-62
2022/10/06 04:04:58;;;;;;;10.50;2.63;;;;;;;15.19;62.53;102497.22;5083907;28;20086;-62
2022/10/06 04:07:26;;;;;;;8.95;2.00;;;;;;;15.18;62.30;102497.44;5084390;28;20051;-63
2022/10/06 04:09:54;;;;;;;7.78;2.20;;;;;;;15.16;62.25;102511.19;5082969;28;20044;-62
2022/10/06 04:12:22;;;;;;;6.68;1.83;;;;;;;15.15;62.41;102516.81;5081019;28;20409;-62
2022/10/06 04:14:51;;;;;;;8.02;2.28;;;;;;;15.15;62.25;102503.28;5083570;28;20049;-62
2022/10/06 04:17:26;;;;;;;7.25;1.90;;;;;;;15.12;62.22;102512.66;5076873;28;20048;-63
2022/10/06 04:19:54;;;;;;;7.35;2.60;;;;;;;15.12;62.27;102519.94;5084776;28;20048;-63
2022/10/06 04:22:22;;;;;;;7.53;2.25;;;;;;;15.11;62.44;102515.56;5081154;28;20040;-62
2022/10/06 04:24:49;;;;;;;12.45;2.35;;;;;;;15.09;62.29;102525.78;5075883;28;20054;-63
2022/10/06 04:27:29;;;;;;;5.57;2.28;;;;;;;15.09;62.06;102523.91;5090488;28;20045;-63
2022/10/06 04:29:58;;;;;;;12.25;2.60;;;;;;;15.07;62.36;102526.00;5080879;28;20044;-63
2022/10/06 04:32:28;;;;;;;6.82;2.08;;;;;;;15.05;62.09;102533.50;5094118;28;20062;-63
2022/10/06 04:34:56;;;;;;;18.30;3.17;;;;;;;15.04;62.24;102536.41;5082822;28;20502;-63
2022/10/06 04:37:23;;;;;;;7.10;1.88;;;;;;;15.02;62.16;102543.91;5072233;28;20104;-63
2022/10/06 04:39:51;;;;;;;10.93;2.50;;;;;;;15.01;62.04;102544.94;5082267;28;20136;-63
2022/10/06 04:42:19;;;;;;;8.10;2.03;;;;;;;15.00;62.25;102549.53;5082031;28;20048;-64
2022/10/06 04:44:47;;;;;;;12.15;2.45;;;;;;;14.98;62.09;102549.75;5073217;28;20052;-63
2022/10/06 04:47:16;;;;;;;9.85;2.78;;;;;;;14.97;61.86;102555.38;5084002;28;20045;-63
2022/10/06 04:49:44;;;;;;;8.52;2.25;;;;;;;14.96;61.82;102551.81;5084769;28;20156;-63
2022/10/06 04:52:12;;;;;;;11.98;2.30;;;;;;;14.95;61.89;102560.16;5080793;28;20044;-63
2022/10/06 04:54:40;;;;;;;8.70;2.05;;;;;;;14.94;62.02;102566.63;5082376;28;20052;-63
2022/10/06 04:57:08;;;;;;;7.30;2.60;;;;;;;14.94;62.15;102569.31;5080874;28;20059;-62
2022/10/06 05:02:22;;;;;;;7.03;2.13;;;;;;;14.91;61.81;102577.88;5079374;28;20512;-62
2022/10/06 05:04:50;;;;;;;7.43;2.30;;;;;;;14.91;61.93;102576.00;5082939;28;20122;-62
2022/10/06 05:07:18;;;;;;;10.50;2.85;;;;;;;14.89;62.14;102579.94;5084484;28;20051;-62
2022/10/06 05:09:46;;;;;;;13.82;3.08;;;;;;;14.88;61.90;102589.09;5071726;28;20044;-62
2022/10/06 05:12:14;;;;;;;9.48;3.00;;;;;;;14.88;61.67;102595.34;5073483;28;20055;-63
2022/10/06 05:14:41;;;;;;;14.75;2.20;;;;;;;14.87;61.75;102596.41;5081294;28;20329;-62
2022/10/06 05:17:09;;;;;;;9.50;1.80;;;;;;;14.86;61.51;102605.56;5083808;28;20048;-62
2022/10/06 05:19:39;;;;;;;9.65;2.45;;;;;;;14.85;61.52;102603.88;5077117;28;20052;-65
2022/10/06 05:22:06;;;;;;;8.45;2.50;;;;;;;14.83;61.84;102605.97;5083816;28;20063;-62
2022/10/06 05:24:34;;;;;;;8.13;2.33;;;;;;;14.83;61.90;102603.25;5081241;28;20051;-62
2022/10/06 05:27:02;;;;;;;12.25;2.60;;;;;;;14.83;61.63;102615.97;5075691;28;20052;-63
2022/10/06 05:29:30;;;;;;;8.00;2.15;;;;;;;14.81;61.36;102607.22;5077909;28;20048;-64
2022/10/06 05:31:58;;;;;;;14.52;2.47;;;;;;;14.80;61.50;102613.66;4727936;28;10000202;-63
2022/10/06 05:34:26;;;;;;;11.93;2.83;;;;;;;14.79;61.68;102623.66;5072138;28;20053;-63
2022/10/06 05:36:55;;;;;;;9.30;3.28;;;;;;;14.78;61.19;102635.53;5078319;28;20126;-63
2022/10/06 05:39:23;;;;;;;8.75;3.17;;;;;;;14.76;61.84;102632.19;5071802;28;20075;-63
2022/10/06 05:41:51;;;;;;;8.88;2.10;;;;;;;14.75;61.81;102629.69;5076651;28;20066;-61
2022/10/06 05:44:19;;;;;;;10.93;2.40;;;;;;;14.74;61.49;102634.28;5068410;28;20049;-60
2022/10/06 05:46:46;;;;;;;8.02;2.10;;;;;;;14.74;61.50;102644.28;5079715;28;20048;-59
2022/10/06 05:49:14;;;;;;;11.05;2.13;;;;;;;14.72;61.36;102657.16;5079035;28;20053;-60
2022/10/06 05:51:42;;;;;;;11.75;2.83;;;;;;;14.71;61.45;102655.50;5079007;28;20112;-60
2022/10/06 05:54:13;;;;;;;12.50;2.63;;;;;;;14.68;61.41;102656.75;5077984;28;20136;-59
2022/10/06 05:56:41;;;;;;;9.40;3.08;;;;;;;14.61;61.42;102648.63;5078726;28;20041;-60
2022/10/06 05:59:09;;;;;;;8.93;3.03;;;;;;;14.68;61.78;102664.03;5077966;28;20507;-60
2022/10/06 06:01:39;;;;;;;11.82;2.40;;;;;;;14.64;61.16;102656.31;5080017;28;20048;-60
2022/10/06 06:04:09;;;;;;;9.98;2.25;;;;;;;14.63;61.65;102670.06;5080351;28;20048;-60
2022/10/06 06:06:38;;;;;;;11.60;3.05;;;;;;;14.64;61.42;102674.44;5077356;28;20052;-60
2022/10/06 06:09:09;;;;;;;12.23;2.80;;;;;;;14.61;61.54;102680.25;5076876;28;20048;-60
2022/10/06 06:11:41;;;;;;;8.68;2.83;;;;;;;14.61;61.14;102681.09;5080937;28;20059;-60
2022/10/06 06:14:10;;;;;;;9.93;2.10;;;;;;;14.59;61.37;102683.16;5085485;28;20044;-61
2022/10/06 06:16:38;;;;;;;15.80;2.45;;;;;;;14.56;60.93;102686.28;5085859;28;20417;-60
2022/10/06 06:19:07;;;;;;;14.25;3.40;;;;;;;14.54;61.32;102682.94;5086570;28;20112;-60
2022/10/06 06:21:35;;;;;;;11.38;2.80;;;;;;;14.53;61.72;102685.84;5081141;28;20058;-60
2022/10/06 06:24:04;;;;;;;14.18;2.88;;;;;;;14.50;61.51;102689.78;5072141;28;20507;-60
2022/10/06 06:26:35;;;;;;;14.65;3.13;;;;;;;14.42;61.27;102675.63;5081834;28;20049;-60
2022/10/06 06:29:05;;;;;;;10.00;2.30;;;;;;;14.44;61.40;102687.06;5075515;28;20044;-60
2022/10/06 06:31:35;;;;;;;8.07;2.40;;;;;;;14.48;61.54;102688.31;5085981;28;20094;-60
2022/10/06 06:34:05;;;;;;;20.80;3.63;;;;;;;14.40;61.42;102677.66;5085895;28;20098;-60
2022/10/06 06:36:35;;;;;;;11.85;3.58;;;;;;;14.47;61.35;102692.06;5075950;28;20049;-60
2022/10/06 06:39:05;;;;;;;11.32;2.95;;;;;;;14.47;61.58;102698.31;5084963;28;20108;-60
2022/10/06 06:41:36;;;;;;;10.05;2.50;;;;;;;14.46;61.51;102699.34;5080191;28;20049;-60
2022/10/06 06:44:07;;;;;;;8.82;3.10;;;;;;;14.46;61.30;102704.75;5086353;28;20049;-60
2022/10/06 06:46:35;;;;;;;8.75;3.17;;;;;;;14.45;61.29;102705.81;5082634;28;20139;-60
2022/10/06 06:49:08;;;;;;;11.23;2.40;;;;;;;14.44;61.44;102717.66;5081027;28;20055;-60
2022/10/06 06:51:39;;;;;;;11.88;3.30;;;;;;;14.43;61.55;102717.84;5082614;28;20056;-60
2022/10/06 06:54:07;;;;;;;10.90;2.33;;;;;;;14.43;61.60;102724.09;5085355;28;20056;-60
2022/10/06 06:56:37;;;;;;;14.70;2.88;;;;;;;14.44;61.43;102724.94;5086065;28;20056;-59
2022/10/06 06:59:10;;;;;;;10.68;2.75;;;;;;;14.43;61.70;102728.69;5084900;28;20179;-61
2022/10/06 07:01:43;;;;;;;10.88;3.17;;;;;;;14.43;61.54;102732.22;5085224;28;20075;-60
2022/10/06 07:04:12;;;;;;;12.43;3.25;;;;;;;14.43;61.34;102739.50;5086598;28;20056;-60
2022/10/06 07:06:41;;;;;;;9.57;3.70;;;;;;;14.42;61.58;102741.38;5078392;28;20049;-59
2022/10/06 07:09:09;;;;;;;10.07;2.92;;;;;;;14.42;61.34;102748.66;5086149;28;20051;-60
2022/10/06 07:11:39;;;;;;;10.90;2.35;;;;;;;14.42;61.71;102756.75;5082678;28;20054;-60
2022/10/06 07:14:11;;;;;;;15.07;3.35;;;;;;;14.42;61.75;102759.47;5079355;28;20466;-60
2022/10/06 07:25:10;;;;;;;14.05;2.85;;;;;;;14.40;61.41;102783.97;5078612;28;20040;-60
2022/10/06 07:27:43;;;;;;;11.90;3.67;;;;;;;14.39;61.51;102787.72;5074803;28;20141;-60
2022/10/06 07:30:17;;;;;;;12.73;3.90;;;;;;;14.41;61.68;102790.22;5085735;28;20048;-60
2022/10/06 07:32:46;;;;;;;9.07;3.53;;;;;;;14.41;61.24;102790.22;5071729;28;20086;-59
2022/10/06 07:35:15;;;;;;;10.95;3.88;;;;;;;14.41;61.72;102796.47;5086283;28;20079;-60
2022/10/06 07:37:43;;;;;;;8.93;2.40;;;;;;;14.32;61.40;102787.69;5085209;28;20048;-60
2022/10/06 07:40:12;;;;;;;10.65;2.17;;;;;;;14.41;61.37;102806.47;5084698;28;20045;-60
2022/10/06 07:42:50;;;;;;;14.05;3.20;;;;;;;14.40;61.86;102810.19;5082587;28;20063;-60
2022/10/06 07:45:39;;;;;;;12.13;2.97;;;;;;;14.41;61.75;102815.41;5085407;28;20059;-60
2022/10/06 07:48:13;;;;;;;10.52;3.10;;;;;;;14.40;61.57;102818.31;5084067;28;20426;-60
2022/10/06 07:50:41;;;;;;;12.73;3.05;;;;;;;14.38;61.29;102818.53;5080081;28;20045;-60
2022/10/06 07:53:09;;;;;;;12.05;3.40;;;;;;;14.38;61.88;102823.94;5084857;28;20044;-60
2022/10/06 07:55:38;;;;;;;9.50;2.35;;;;;;;14.40;61.91;102832.69;5081275;28;20058;-60
2022/10/06 07:58:11;;;;;;;11.98;3.40;;;;;;;14.40;61.61;102829.13;5076152;28;20052;-60
2022/10/06 08:00:41;;;;;;;8.45;2.60;;;;;;;14.39;61.47;102831.00;5084752;28;20048;-59
2022/10/06 08:03:10;;;;;;;10.90;2.72;;;;;;;14.25;61.70;102813.03;5084056;28;20044;-60
2022/10/06 08:05:38;;;;;;;12.65;2.50;;;;;;;14.26;61.57;102820.94;5081785;28;20150;-61
2022/10/06 08:08:06;;;;;;;15.48;3.67;;;;;;;14.38;61.84;102848.28;4727621;28;10000310;-60
2022/10/06 08:10:34;;;;;;;13.43;3.13;;;;;;;14.38;61.81;102844.72;5065923;28;20063;-60
2022/10/06 08:13:05;;;;;;;9.88;2.22;;;;;;;14.38;61.70;102844.72;5077630;28;20146;-60
2022/10/06 08:15:33;;;;;;;11.05;2.70;;;;;;;14.37;61.55;102845.78;5074830;28;20055;-59
2022/10/06 08:18:03;;;;;;;12.57;2.92;;;;;;;14.37;62.18;102851.19;5070626;28;20055;-59
2022/10/06 08:20:47;;;;;;;;;;;;;;;14.38;62.03;102852.84;5080060;28;20045;-59
2022/10/06 08:23:15;;;;;;;13.40;2.83;;;;;;;14.38;61.41;102858.25;5074726;28;19920;-59
2022/10/06 08:25:50;;;;;;;15.98;2.65;;;;;;;14.37;61.65;102857.41;5079750;28;20048;-59
2022/10/06 08:28:21;;;;;;;11.07;2.53;;;;;;;14.36;61.64;102868.44;5080240;28;20060;-59
2022/10/06 08:30:50;;;;;;;15.32;3.85;;;;;;;14.37;61.91;102872.81;5078022;28;20104;-59
2022/10/06 08:33:19;;;;;;;12.00;2.50;;;;;;;14.37;61.65;102873.66;5084037;28;20053;-59
2022/10/06 08:35:48;;;;;;;12.88;2.95;;;;;;;14.39;61.88;102873.47;5080737;28;20224;-59
2022/10/06 08:38:16;;;;;;;11.30;3.00;;;;;;;14.38;61.67;102878.03;5078284;28;20391;-59
2022/10/06 08:40:46;;;;;;;8.07;2.08;;;;;;;14.39;61.90;102889.69;5079367;28;20059;-59
2022/10/06 08:43:19;;;;;;;10.10;3.35;;;;;;;14.40;61.54;102885.94;5076758;28;20055;-59
2022/10/06 08:45:47;;;;;;;18.80;3.30;;;;;;;14.41;61.85;102893.03;5079557;28;20196;-59
2022/10/06 08:48:23;;;;;;;11.63;3.15;;;;;;;14.27;61.88;102865.06;5080470;28;20086;-59
2022/10/06 08:50:57;;;;;;;10.70;2.80;;;;;;;14.47;61.82;102884.16;5079728;28;20152;-58
2022/10/06 08:53:31;;;;;;;7.55;2.95;;;;;;;14.53;61.88;102886.06;5078198;28;20060;-58
2022/10/06 08:56:06;;;;;;;9.00;2.80;;;;;;;14.47;61.63;102898.53;5080101;28;20056;-58
2022/10/06 08:58:51;;;;;;;10.18;2.60;;;;;;;14.46;61.95;102898.72;5078819;28;20079;-58
2022/10/06 09:01:22;;;;;;;10.60;2.88;;;;;;;14.48;62.09;102900.19;5080036;28;20045;-60
2022/10/06 09:03:55;;;;;;;12.13;2.45;;;;;;;14.55;61.86;102897.53;5078706;28;20053;-61
2022/10/06 09:06:36;;;;;;;8.52;2.30;;;;;;;14.51;61.98;102909.78;5078047;28;20044;-62
2022/10/06 09:09:17;;;;;;;18.60;3.58;;;;;;;14.51;62.09;102912.50;5075597;28;20632;-61
2022/10/06 09:12:00;;;;;;;13.23;2.65;;;;;;;14.51;62.24;102920.59;4716049;28;10000551;-61
2022/10/06 09:14:33;;;;;;;10.18;2.88;;;;;;;14.51;62.00;102916.03;5070306;28;20045;-61
2022/10/06 09:17:04;;;;;;;9.98;2.97;;;;;;;14.51;62.04;102918.75;5078680;28;20055;-60
2022/10/06 09:19:41;;;;;;;9.27;2.45;;;;;;;14.53;62.11;102921.25;5074364;28;20057;-61
2022/10/06 09:22:17;;;;;;;16.23;3.08;;;;;;;14.55;62.21;102930.84;5074889;28;20047;-61
2022/10/06 09:24:49;;;;;;;12.30;2.93;;;;;;;14.57;62.07;102930.63;5080272;28;20139;-61
2022/10/06 09:27:20;;;;;;;15.30;3.85;;;;;;;14.57;61.98;102923.38;5077282;28;20059;-61
2022/10/06 09:29:48;;;;;;;10.82;3.08;;;;;;;14.59;61.78;102928.56;5078924;28;20056;-61
2022/10/06 09:32:18;;;;;;;10.43;2.60;;;;;;;14.61;62.17;102937.34;5078740;28;20071;-62
2022/10/06 09:34:51;;;;;;;11.00;2.38;;;;;;;14.60;62.16;102933.78;5077399;28;20072;-62
2022/10/06 09:37:19;;;;;;;13.85;2.88;;;;;;;14.62;61.89;102937.13;5079461;28;20053;-62
2022/10/06 09:39:49;;;;;;;9.65;2.28;;;;;;;14.56;62.18;102932.50;5077943;28;20072;-60
2022/10/06 09:42:21;;;;;;;13.07;2.72;;;;;;;14.64;62.13;102943.19;5079196;28;20118;-60
2022/10/06 09:44:57;;;;;;;11.07;2.17;;;;;;;14.65;62.39;102950.28;5084274;28;20098;-59
2022/10/06 09:47:43;;;;;;;14.48;4.28;;;;;;;14.67;62.17;102947.38;5071992;28;20109;-60
2022/10/06 09:50:19;;;;;;;8.32;2.10;;;;;;;14.68;62.32;102953.63;5083345;28;20044;-60
2022/10/06 09:53:06;;;;;;;10.30;2.50;;;;;;;14.62;62.05;102936.28;5081095;28;20158;-60
2022/10/06 09:55:43;;;;;;;15.18;2.95;;;;;;;14.70;62.14;102954.25;5073850;28;20522;-60
2022/10/06 09:58:33;;;;;;;17.30;2.70;;;;;;;14.73;61.92;102959.28;5079977;28;20067;-60
2022/10/06 10:01:03;;;;;;;8.75;2.45;;;;;;;14.75;61.99;102954.50;5066025;28;20040;-60
2022/10/06 10:03:50;;;;;;;12.05;2.30;;;;;;;14.77;62.13;102955.13;5081606;28;20110;-60
2022/10/06 10:06:40;;;;;;;11.77;2.80;;;;;;;14.79;62.37;102948.50;5083803;28;20140;-60
2022/10/06 10:09:24;;;;;;;10.98;2.83;;;;;;;14.75;62.19;102947.22;5076084;28;20056;-60
2022/10/06 10:12:26;;;;;;;10.38;2.55;;;;;;;14.87;61.91;102945.63;5080584;28;20044;-60
2022/10/06 10:14:56;;;;;;;17.05;2.83;;;;;;;14.92;61.90;102945.03;5079297;28;20058;-60
2022/10/06 10:17:34;;;;;;;13.27;2.90;;;;;;;14.92;61.87;102942.31;5076647;28;20059;-60
2022/10/06 10:20:07;;;;;;;9.75;2.72;;;;;;;14.85;61.98;102938.75;5085716;28;20055;-61
2022/10/06 10:22:39;;;;;;;9.20;2.55;;;;;;;14.94;62.31;102949.22;5084468;28;20044;-63
2022/10/06 10:25:20;;;;;;;14.50;2.63;;;;;;;14.95;62.10;102948.19;5079637;28;20055;-63
2022/10/06 10:27:54;;;;;;;10.52;2.42;;;;;;;14.96;62.22;102952.56;5081514;28;20052;-63
2022/10/06 10:30:22;;;;;;;13.88;3.28;;;;;;;14.98;62.17;102953.19;5087166;28;20071;-63
2022/10/06 10:33:03;;;;;;;9.27;3.45;;;;;;;15.01;61.97;102953.81;5086660;28;20055;-63
2022/10/06 10:35:33;;;;;;;8.23;2.22;;;;;;;14.93;62.15;102942.13;5075925;28;20057;-63
2022/10/06 10:38:07;;;;;;;7.95;2.45;;;;;;;15.05;62.06;102960.50;5082187;28;20044;-63
2022/10/06 10:40:47;;;;;;;9.15;1.95;;;;;;;15.07;61.30;102958.44;5077717;28;20052;-63
2022/10/06 10:43:28;;;;;;;12.23;2.22;;;;;;;15.07;60.79;102951.16;5085687;28;20059;-63
2022/10/06 10:46:03;;;;;;;8.23;1.92;;;;;;;15.09;61.10;102953.66;5086644;28;20048;-63
2022/10/06 10:48:36;;;;;;;13.05;2.58;;;;;;;15.10;61.08;102958.88;5079786;28;20052;-63
2022/10/06 10:51:11;;;;;;;11.00;2.28;;;;;;;15.10;61.12;102955.34;5086273;28;20108;-62
2022/10/06 10:53:48;;;;;;;13.75;2.35;;;;;;;15.14;60.51;102957.44;5073288;28;20048;-62
2022/10/06 10:56:19;;;;;;;10.93;2.25;;;;;;;15.14;59.95;102951.19;5085414;28;20063;-62
2022/10/06 10:58:52;;;;;;;7.28;2.17;;;;;;;15.16;60.06;102949.94;5084993;28;20517;-62
2022/10/06 11:01:29;;;;;;;15.27;2.80;;;;;;;15.18;60.21;102952.47;5077358;28;20053;-62
2022/10/06 11:03:57;;;;;;;;;;;;;;;15.20;60.23;102955.81;5091470;28;20052;-62
2022/10/06 11:06:40;;;;;;;10.30;1.80;;;;;;;15.22;60.39;102953.72;5095580;28;20602;-62
2022/10/06 11:09:13;;;;;;;9.27;2.60;;;;;;;15.23;60.29;102948.09;5084661;28;20055;-61
2022/10/06 11:11:53;;;;;;;10.73;1.88;;;;;;;15.25;59.47;102951.47;5078976;28;20045;-62
2022/10/06 11:14:34;;;;;;;7.53;2.13;;;;;;;15.28;59.19;102952.94;5078202;28;20108;-62
2022/10/06 11:17:11;;;;;;;13.07;2.03;;;;;;;15.30;59.48;102951.69;5085338;28;20104;-60
2022/10/06 11:19:48;;;;;;;8.82;1.80;;;;;;;15.33;59.21;102957.75;5084430;28;20052;-60
2022/10/06 11:22:26;;;;;;;7.55;1.90;;;;;;;15.34;59.38;102954.81;4732407;28;9999971;-61
2022/10/06 11:25:03;;;;;;;11.70;2.38;;;;;;;15.36;59.09;102962.75;5088885;28;20063;-61
2022/10/06 11:27:37;;;;;;;;;;;;;;;15.41;60.32;102952.97;5078758;28;20072;-62
2022/10/06 11:30:13;;;;;;;7.15;1.50;;;;;;;15.45;60.44;102954.25;5075628;28;19934;-61
2022/10/06 11:33:00;;;;;;;6.13;1.60;;;;;;;15.44;59.02;102966.13;5082172;28;20044;-61
2022/10/06 11:35:34;;;;;;;8.55;2.22;;;;;;;15.47;58.45;102957.59;5080754;28;20049;-62
2022/10/06 11:38:07;;;;;;;6.85;1.75;;;;;;;15.48;58.05;102955.72;5071744;28;20136;-62
2022/10/06 11:40:59;;;;;;;5.25;1.52;;;;;;;15.52;59.66;102956.97;5079331;28;20056;-61
2022/10/06 11:43:35;;;;;;;6.75;1.38;;;;;;;15.56;60.05;102950.13;5078108;28;20056;-62
2022/10/06 11:46:10;;;;;;;6.20;2.13;;;;;;;15.59;59.76;102963.28;5080963;28;20054;-61
2022/10/06 11:48:37;;;;;;;7.25;1.90;;;;;;;15.63;59.45;102964.53;5080778;28;20131;-61
2022/10/06 11:51:29;;;;;;;6.90;1.75;;;;;;;15.61;59.19;102944.91;5085420;28;20050;-62